createdAt,value
2022-12-15T00:02:17.993Z,88.00
2022-12-15T00:05:03.270Z,88.00
2022-12-15T00:07:48.620Z,88.00
2022-12-15T00:10:34.222Z,88.00
2022-12-15T00:13:19.575Z,88.00
2022-12-15T00:16:08.052Z,88.00
2022-12-15T00:18:53.244Z,88.00
2022-12-15T00:21:39.010Z,88.00
2022-12-15T00:24:24.783Z,87.90
2022-12-15T00:27:09.974Z,88.00
2022-12-15T00:29:55.220Z,88.00
2022-12-15T00:32:41.336Z,88.00
2022-12-15T00:35:26.994Z,88.00
2022-12-15T00:38:12.504Z,88.10
2022-12-15T00:40:39.440Z,88.60
2022-12-15T00:43:12.234Z,88.20
2022-12-15T00:45:57.903Z,88.20
2022-12-15T00:48:24.889Z,88.30
2022-12-15T00:50:54.312Z,88.30
2022-12-15T00:53:40.560Z,88.30
2022-12-15T00:56:26.323Z,88.30
2022-12-15T00:59:11.915Z,88.30
2022-12-15T01:01:57.883Z,88.40
2022-12-15T01:04:43.714Z,88.30
2022-12-15T01:07:28.994Z,88.40
2022-12-15T01:10:14.318Z,88.50
2022-12-15T01:12:59.895Z,88.50
2022-12-15T01:15:45.046Z,88.50
2022-12-15T01:18:30.327Z,88.50
2022-12-15T01:20:57.988Z,88.50
2022-12-15T01:23:25.021Z,88.50
2022-12-15T01:25:52.599Z,88.50
2022-12-15T01:28:20.483Z,88.40
2022-12-15T01:30:47.487Z,88.40
2022-12-15T01:33:15.021Z,88.50
2022-12-15T01:35:41.919Z,88.60
2022-12-15T01:38:09.086Z,88.60
2022-12-15T01:40:45.187Z,88.60
2022-12-15T01:43:19.923Z,88.70
2022-12-15T01:46:01.157Z,89.20
2022-12-15T01:48:49.324Z,88.70
2022-12-15T01:51:33.259Z,88.70
2022-12-15T01:54:23.181Z,88.70
2022-12-15T01:56:51.483Z,88.60
2022-12-15T01:59:21.215Z,88.60
2022-12-15T02:01:49.744Z,88.60
2022-12-15T02:04:18.094Z,88.60
2022-12-15T02:06:45.077Z,88.60
2022-12-15T02:09:11.997Z,88.60
2022-12-15T02:11:44.733Z,88.70
2022-12-15T02:14:12.355Z,88.70
2022-12-15T02:17:01.145Z,88.80
2022-12-15T02:19:46.542Z,88.80
2022-12-15T02:22:35.235Z,88.80
2022-12-15T02:25:25.020Z,88.80
2022-12-15T02:27:57.852Z,88.70
2022-12-15T02:30:42.906Z,88.70
2022-12-15T02:33:24.026Z,88.80
2022-12-15T02:35:58.036Z,88.80
2022-12-15T02:38:28.111Z,89.30
2022-12-15T02:41:02.182Z,88.80
2022-12-15T02:43:29.757Z,89.30
2022-12-15T02:46:01.561Z,88.80
2022-12-15T02:48:58.173Z,88.80
2022-12-15T02:51:32.749Z,88.80
2022-12-15T02:54:20.006Z,88.90
2022-12-15T02:57:04.195Z,88.90
2022-12-15T02:59:57.038Z,88.90
2022-12-15T03:02:25.524Z,88.90
2022-12-15T03:04:52.505Z,88.90
2022-12-15T03:07:19.407Z,89.00
2022-12-15T03:09:46.247Z,89.00
2022-12-15T03:12:13.190Z,89.00
2022-12-15T03:14:40.070Z,89.00
2022-12-15T03:17:07.728Z,89.00
2022-12-15T03:19:34.774Z,89.10
2022-12-15T03:22:01.948Z,89.10
2022-12-15T03:24:28.833Z,89.00
2022-12-15T03:26:55.866Z,89.00
2022-12-15T03:29:22.808Z,89.00
2022-12-15T03:31:50.170Z,89.00
2022-12-15T03:34:17.630Z,89.00
2022-12-15T03:36:44.519Z,89.10
2022-12-15T03:39:11.539Z,89.10
2022-12-15T03:41:38.492Z,89.10
2022-12-15T03:44:05.418Z,89.10
2022-12-15T03:46:32.327Z,89.10
2022-12-15T03:48:59.255Z,89.10
2022-12-15T03:51:26.244Z,89.10
2022-12-15T03:53:53.825Z,89.20
2022-12-15T03:56:20.751Z,89.20
2022-12-15T03:58:47.615Z,89.10
2022-12-15T04:01:28.135Z,89.20
2022-12-15T04:04:00.528Z,89.20
2022-12-15T04:06:28.856Z,89.20
2022-12-15T04:08:55.744Z,89.20
2022-12-15T04:11:22.621Z,89.20
2022-12-15T04:13:49.470Z,89.10
2022-12-15T04:16:20.042Z,89.10
2022-12-15T04:19:07.450Z,89.10
2022-12-15T04:21:34.283Z,89.00
2022-12-15T04:24:19.396Z,89.00
2022-12-15T04:27:04.572Z,89.00
2022-12-15T04:29:49.644Z,88.90
2022-12-15T04:32:34.928Z,88.90
2022-12-15T04:35:20.046Z,88.90
2022-12-15T04:38:06.329Z,88.90
2022-12-15T04:40:51.369Z,88.90
2022-12-15T04:43:36.624Z,88.90
2022-12-15T04:46:21.846Z,88.90
2022-12-15T04:49:07.586Z,88.90
2022-12-15T04:51:52.782Z,88.90
2022-12-15T04:54:38.250Z,88.90
2022-12-15T04:57:23.435Z,88.90
2022-12-15T05:00:08.512Z,88.90
2022-12-15T05:02:53.629Z,88.90
2022-12-15T05:05:38.727Z,88.90
2022-12-15T05:08:24.215Z,89.40
2022-12-15T05:11:09.985Z,88.90
2022-12-15T05:13:55.102Z,89.00
2022-12-15T05:16:40.416Z,89.00
2022-12-15T05:19:25.610Z,88.90
2022-12-15T05:22:10.673Z,89.00
2022-12-15T05:24:55.947Z,88.90
2022-12-15T05:27:41.114Z,89.00
2022-12-15T05:30:27.530Z,89.00
2022-12-15T05:32:54.510Z,89.00
2022-12-15T05:35:21.399Z,89.00
2022-12-15T05:37:48.299Z,89.00
2022-12-15T05:40:15.288Z,89.00
2022-12-15T05:42:42.139Z,89.00
2022-12-15T05:45:10.377Z,89.00
2022-12-15T05:47:37.268Z,89.00
2022-12-15T05:50:04.322Z,89.10
2022-12-15T05:52:31.453Z,89.10
2022-12-15T05:54:58.357Z,89.10
2022-12-15T05:57:25.246Z,89.10
2022-12-15T05:59:52.119Z,89.10
2022-12-15T06:02:18.981Z,89.10
2022-12-15T06:04:46.012Z,89.20
2022-12-15T06:07:12.925Z,89.10
2022-12-15T06:09:40.045Z,89.10
2022-12-15T06:12:07.138Z,89.10
2022-12-15T06:14:34.223Z,89.10
2022-12-15T06:17:01.283Z,89.10
2022-12-15T06:19:28.189Z,89.10
2022-12-15T06:21:55.137Z,89.10
2022-12-15T06:24:22.071Z,89.10
2022-12-15T06:26:49.623Z,89.10
2022-12-15T06:29:17.001Z,89.00
2022-12-15T06:31:43.965Z,89.00
2022-12-15T06:34:14.857Z,89.00
2022-12-15T06:36:41.996Z,89.00
2022-12-15T06:39:10.732Z,88.90
2022-12-15T06:41:37.774Z,88.90
2022-12-15T06:44:04.881Z,88.90
2022-12-15T06:46:32.123Z,88.90
2022-12-15T06:48:59.254Z,88.90
2022-12-15T06:51:26.421Z,88.90
2022-12-15T06:53:54.434Z,88.90
2022-12-15T06:56:30.641Z,88.90
2022-12-15T06:59:00.399Z,88.90
2022-12-15T07:01:27.738Z,88.90
2022-12-15T07:03:55.515Z,88.90
2022-12-15T07:06:22.700Z,88.90
2022-12-15T07:08:54.391Z,88.90
2022-12-15T07:11:21.702Z,88.90
2022-12-15T07:13:52.721Z,89.00
2022-12-15T07:16:20.578Z,89.00
2022-12-15T07:18:47.539Z,89.00
2022-12-15T07:21:14.448Z,89.00
2022-12-15T07:23:57.491Z,88.90
2022-12-15T07:26:25.199Z,88.90
2022-12-15T07:28:53.774Z,88.90
2022-12-15T07:31:21.195Z,88.90
2022-12-15T07:33:48.598Z,88.90
2022-12-15T07:36:15.758Z,88.90
2022-12-15T07:38:43.425Z,88.90
2022-12-15T07:41:10.558Z,88.90
2022-12-15T07:43:38.107Z,88.90
2022-12-15T07:46:05.486Z,88.90
2022-12-15T07:48:32.834Z,88.90
2022-12-15T07:51:08.355Z,88.90
2022-12-15T07:53:36.004Z,88.90
2022-12-15T07:56:08.838Z,89.00
2022-12-15T07:58:37.254Z,88.90
2022-12-15T08:01:08.703Z,88.90
2022-12-15T08:03:36.691Z,88.90
2022-12-15T08:06:08.137Z,88.90
2022-12-15T08:08:35.840Z,88.90
2022-12-15T08:11:07.043Z,88.90
2022-12-15T08:16:21.879Z,88.80
2022-12-15T08:18:49.073Z,88.70
2022-12-15T08:21:16.230Z,88.80
2022-12-15T08:23:43.145Z,88.70
2022-12-15T08:26:14.608Z,88.70
2022-12-15T08:28:42.068Z,88.70
2022-12-15T08:31:12.763Z,88.70
2022-12-15T08:33:40.133Z,88.60
2022-12-15T08:36:08.929Z,88.70
2022-12-15T08:38:36.604Z,88.60
2022-12-15T08:41:16.356Z,88.70
2022-12-15T08:43:48.718Z,88.70
2022-12-15T08:46:21.092Z,88.80
2022-12-15T08:48:48.195Z,88.70
2022-12-15T08:51:15.194Z,88.70
2022-12-15T08:53:42.266Z,88.70
2022-12-15T08:56:10.577Z,88.70
2022-12-15T08:58:37.405Z,88.70
2022-12-15T09:01:06.450Z,88.60
2022-12-15T09:03:36.456Z,88.60
2022-12-15T09:06:04.438Z,88.60
2022-12-15T09:08:31.320Z,88.50
2022-12-15T09:10:58.881Z,88.50
2022-12-15T09:13:25.929Z,88.40
2022-12-15T09:16:15.232Z,88.30
2022-12-15T09:18:46.742Z,88.30
2022-12-15T09:21:14.028Z,88.20
2022-12-15T09:23:41.183Z,88.20
2022-12-15T09:26:10.329Z,88.20
2022-12-15T09:28:40.368Z,88.20
2022-12-15T09:31:11.081Z,88.10
2022-12-15T09:33:38.783Z,88.10
2022-12-15T09:36:13.784Z,88.00
2022-12-15T09:39:03.402Z,88.00
2022-12-15T09:45:42.852Z,87.90
2022-12-15T09:48:13.281Z,87.80
2022-12-15T09:50:40.386Z,87.80
2022-12-15T09:53:45.376Z,87.70
2022-12-15T10:00:21.394Z,87.70
2022-12-15T10:03:09.906Z,87.50
2022-12-15T10:06:18.434Z,87.60
2022-12-15T10:08:54.793Z,87.50
2022-12-15T10:11:43.696Z,87.50
2022-12-15T10:14:33.414Z,87.50
2022-12-15T10:17:21.744Z,87.50
2022-12-15T10:20:02.113Z,87.50
2022-12-15T10:22:34.494Z,87.50
2022-12-15T10:25:23.577Z,87.50
2022-12-15T10:28:16.830Z,87.50
2022-12-15T10:30:59.538Z,87.50
2022-12-15T10:33:31.379Z,87.40
2022-12-15T10:36:00.167Z,87.40
2022-12-15T10:38:56.550Z,87.40
2022-12-15T10:41:26.905Z,87.50
2022-12-15T10:44:05.758Z,87.40
2022-12-15T10:46:33.056Z,87.40
2022-12-15T10:49:08.848Z,87.40
2022-12-15T10:52:00.375Z,87.40
2022-12-15T10:54:31.430Z,87.40
2022-12-15T10:57:02.154Z,87.30
2022-12-15T10:59:34.195Z,87.30
2022-12-15T11:02:26.641Z,87.30
2022-12-15T11:05:29.725Z,87.20
2022-12-15T11:08:15.944Z,87.20
2022-12-15T11:11:15.395Z,87.20
2022-12-15T11:13:43.731Z,87.20
2022-12-15T11:16:18.039Z,87.10
2022-12-15T11:18:53.896Z,87.10
2022-12-15T11:21:31.011Z,87.10
2022-12-15T11:24:00.413Z,87.10
2022-12-15T11:26:51.147Z,87.10
2022-12-15T11:29:23.978Z,87.00
2022-12-15T11:31:51.467Z,87.00
2022-12-15T11:34:28.581Z,87.00
2022-12-15T11:37:18.816Z,87.00
2022-12-15T11:39:58.944Z,86.90
2022-12-15T11:42:50.649Z,86.90
2022-12-15T11:45:17.549Z,86.80
2022-12-15T11:47:52.606Z,86.80
2022-12-15T11:50:51.069Z,86.70
2022-12-15T11:53:45.688Z,86.60
2022-12-15T11:56:34.639Z,86.60
2022-12-15T11:59:19.590Z,86.40
2022-12-15T12:02:10.105Z,86.30
2022-12-15T12:04:50.935Z,86.20
2022-12-15T12:07:49.124Z,86.10
2022-12-15T12:10:25.393Z,86.00
2022-12-15T12:13:24.176Z,85.90
2022-12-15T12:16:00.724Z,85.80
2022-12-15T12:19:05.032Z,85.70
2022-12-15T12:22:41.832Z,85.60
2022-12-15T12:25:28.819Z,85.50
2022-12-15T12:28:33.905Z,85.40
2022-12-15T12:31:29.885Z,85.30
2022-12-15T12:34:14.881Z,85.40
2022-12-15T12:36:42.762Z,85.30
2022-12-15T12:39:15.168Z,85.30
2022-12-15T12:42:00.034Z,85.30
2022-12-15T12:44:34.983Z,85.30
2022-12-15T12:49:58.953Z,85.30
2022-12-15T12:52:33.517Z,85.30
2022-12-15T12:55:14.873Z,85.30
2022-12-15T12:57:45.260Z,85.30
2022-12-15T13:00:31.495Z,85.40
2022-12-15T13:03:19.662Z,85.30
2022-12-15T13:05:50.448Z,85.40
2022-12-15T13:08:25.804Z,85.30
2022-12-15T13:10:52.963Z,85.30
2022-12-15T13:13:32.647Z,85.30
2022-12-15T13:16:10.711Z,85.20
2022-12-15T13:19:02.183Z,85.20
2022-12-15T13:21:58.962Z,85.10
2022-12-15T13:24:33.957Z,85.00
2022-12-15T13:27:05.254Z,85.00
2022-12-15T13:29:32.170Z,84.90
2022-12-15T13:31:59.413Z,84.90
2022-12-15T13:34:27.511Z,84.80
2022-12-15T13:37:03.279Z,84.80
2022-12-15T13:39:30.245Z,84.80
2022-12-15T13:44:55.449Z,84.60
2022-12-15T13:47:27.714Z,84.60
2022-12-15T13:50:13.552Z,84.50
2022-12-15T13:53:17.854Z,84.40
2022-12-15T13:55:38.212Z,84.20
2022-12-15T13:58:16.209Z,84.10
2022-12-15T14:00:54.342Z,83.80
2022-12-15T14:03:21.426Z,83.60
2022-12-15T14:08:37.391Z,83.40
2022-12-15T14:11:22.530Z,83.30
2022-12-15T14:13:54.367Z,83.30
2022-12-15T14:16:22.248Z,83.20
2022-12-15T14:19:08.783Z,83.10
2022-12-15T14:21:35.776Z,83.00
2022-12-15T14:24:37.030Z,83.00
2022-12-15T14:26:50.598Z,82.90
2022-12-15T14:29:17.746Z,82.90
2022-12-15T14:31:53.943Z,82.80
2022-12-15T14:34:28.083Z,82.80
2022-12-15T14:36:56.669Z,82.80
2022-12-15T14:39:31.076Z,82.70
2022-12-15T14:41:58.234Z,82.70
2022-12-15T14:44:31.476Z,82.80
2022-12-15T14:47:34.839Z,83.00
2022-12-15T14:50:02.573Z,83.00
2022-12-15T14:52:33.227Z,83.00
2022-12-15T14:55:03.960Z,83.20
2022-12-15T14:57:44.582Z,83.30
2022-12-15T15:00:35.645Z,83.50
2022-12-15T15:03:10.316Z,83.60
2022-12-15T15:03:18.712Z,83.60
2022-12-15T15:05:48.410Z,83.80
2022-12-15T15:08:19.684Z,83.90
2022-12-15T15:10:51.573Z,84.00
2022-12-15T15:13:19.956Z,84.10
2022-12-15T15:15:57.863Z,84.20
2022-12-15T15:18:27.123Z,84.30
2022-12-15T15:21:03.594Z,84.40
2022-12-15T15:23:33.042Z,84.50
2022-12-15T15:26:06.182Z,84.60
2022-12-15T15:28:42.604Z,84.60
2022-12-15T15:31:26.165Z,84.50
2022-12-15T15:33:58.709Z,84.40
2022-12-15T15:36:38.002Z,84.40
2022-12-15T15:39:20.336Z,84.40
2022-12-15T15:41:47.540Z,84.40
2022-12-15T15:44:25.698Z,84.50
2022-12-15T15:46:55.416Z,84.60
2022-12-15T15:49:41.424Z,84.70
2022-12-15T15:59:38.400Z,84.90
2022-12-15T16:02:08.861Z,85.00
2022-12-15T16:04:49.940Z,85.10
2022-12-15T16:07:24.554Z,85.20
2022-12-15T16:09:52.596Z,85.30
2022-12-15T16:12:31.782Z,85.40
2022-12-15T16:14:58.878Z,85.50
2022-12-15T16:17:26.080Z,85.60
2022-12-15T16:19:53.057Z,85.70
2022-12-15T16:22:26.813Z,85.70
2022-12-15T16:24:53.950Z,85.70
2022-12-15T16:27:20.882Z,85.70
2022-12-15T16:29:50.600Z,85.70
2022-12-15T16:32:28.159Z,85.80
2022-12-15T16:34:55.274Z,85.80
2022-12-15T16:37:26.724Z,86.00
2022-12-15T16:39:53.755Z,86.00
2022-12-15T16:42:20.758Z,86.10
2022-12-15T16:44:47.827Z,86.20
2022-12-15T16:47:16.553Z,86.10
2022-12-15T16:49:43.615Z,86.30
2022-12-15T16:52:20.775Z,86.30
2022-12-15T16:54:55.477Z,86.30
2022-12-15T16:57:25.782Z,86.30
2022-12-15T16:59:52.813Z,86.30
2022-12-15T17:02:28.819Z,86.20
2022-12-15T17:04:56.167Z,86.30
2022-12-15T17:11:25.378Z,86.40
2022-12-15T17:17:47.121Z,86.40
2022-12-15T17:20:29.952Z,86.40
2022-12-15T17:23:05.599Z,86.40
2022-12-15T17:26:19.592Z,86.50
2022-12-15T17:28:29.566Z,86.50
2022-12-15T17:30:56.701Z,86.60
2022-12-15T17:33:36.895Z,86.60
2022-12-15T17:36:07.396Z,86.60
2022-12-15T17:38:37.207Z,86.60
2022-12-15T17:41:04.265Z,86.70
2022-12-15T17:43:35.708Z,86.70
2022-12-15T17:46:03.183Z,86.70
2022-12-15T17:48:30.140Z,86.80
2022-12-15T17:50:57.206Z,86.90
2022-12-15T17:53:24.360Z,86.90
2022-12-15T17:55:52.715Z,86.90
2022-12-15T17:58:21.247Z,86.90
2022-12-15T18:00:52.878Z,86.90
2022-12-15T18:03:21.002Z,86.90
2022-12-15T18:05:48.953Z,86.90
2022-12-15T18:08:17.852Z,86.90
2022-12-15T18:10:45.260Z,86.80
2022-12-15T18:13:26.864Z,86.80
2022-12-15T18:15:55.634Z,86.70
2022-12-15T18:18:23.446Z,86.60
2022-12-15T18:20:57.010Z,86.60
2022-12-15T18:23:24.755Z,86.60
2022-12-15T18:26:02.713Z,86.60
2022-12-15T18:28:31.812Z,86.60
2022-12-15T18:31:15.185Z,86.70
2022-12-15T18:33:42.191Z,86.70
2022-12-15T18:36:09.458Z,86.80
2022-12-15T18:38:36.407Z,86.90
2022-12-15T18:41:04.497Z,87.00
2022-12-15T18:43:33.163Z,87.60
2022-12-15T18:46:00.680Z,87.10
2022-12-15T18:48:32.331Z,87.10
2022-12-15T18:51:00.135Z,87.10
2022-12-15T18:53:31.983Z,87.10
2022-12-15T18:56:07.791Z,87.00
2022-12-15T18:58:37.391Z,86.80
2022-12-15T19:01:13.589Z,86.80
2022-12-15T19:03:41.670Z,86.80
2022-12-15T19:06:35.060Z,86.80
2022-12-15T19:09:07.137Z,86.80
2022-12-15T19:11:34.884Z,86.80
2022-12-15T19:14:02.554Z,86.90
2022-12-15T19:16:49.821Z,86.90
2022-12-15T19:19:41.275Z,87.00
2022-12-15T19:22:30.117Z,87.10
2022-12-15T19:24:57.141Z,87.20
2022-12-15T19:27:26.428Z,87.30
2022-12-15T19:29:56.531Z,87.30
2022-12-15T19:36:12.433Z,87.40
2022-12-15T19:38:39.596Z,87.50
2022-12-15T19:41:37.880Z,87.50
2022-12-15T19:44:15.548Z,87.50
2022-12-15T19:46:47.399Z,87.50
2022-12-15T19:49:19.738Z,87.50
2022-12-15T19:51:46.990Z,87.50
2022-12-15T19:54:20.798Z,87.50
2022-12-15T19:56:53.462Z,87.60
2022-12-15T19:59:23.956Z,87.70
2022-12-15T20:01:53.531Z,87.70
2022-12-15T20:04:24.075Z,87.70
2022-12-15T20:06:51.399Z,87.60
2022-12-15T20:09:18.496Z,87.60
2022-12-15T20:11:45.689Z,87.50
2022-12-15T20:14:13.752Z,87.50
2022-12-15T20:16:41.165Z,87.40
2022-12-15T20:19:08.112Z,87.40
2022-12-15T20:21:39.075Z,87.30
2022-12-15T20:24:18.953Z,87.30
2022-12-15T20:26:46.205Z,87.40
2022-12-15T20:29:30.338Z,87.40
2022-12-15T20:31:57.891Z,87.40
2022-12-15T20:34:25.050Z,87.40
2022-12-15T20:36:52.033Z,87.40
2022-12-15T20:39:25.954Z,87.40
2022-12-15T20:41:53.304Z,87.40
2022-12-15T20:44:20.307Z,87.50
2022-12-15T20:46:47.303Z,87.40
2022-12-15T20:49:16.163Z,87.40
2022-12-15T20:52:52.467Z,87.40
2022-12-15T20:55:36.518Z,87.40
2022-12-15T20:58:03.694Z,87.40
2022-12-15T21:04:57.404Z,87.40
2022-12-15T21:07:32.235Z,87.40
2022-12-15T21:10:11.361Z,87.40
2022-12-15T21:12:38.522Z,87.50
2022-12-15T21:15:34.808Z,88.00
2022-12-15T21:18:46.658Z,87.60
2022-12-15T21:20:59.067Z,87.60
2022-12-15T21:23:32.754Z,87.60
2022-12-15T21:26:02.355Z,87.50
2022-12-15T21:28:29.604Z,87.50
2022-12-15T21:30:58.045Z,87.50
2022-12-15T21:33:24.975Z,87.60
2022-12-15T21:36:55.229Z,87.60
2022-12-15T21:39:35.842Z,87.70
2022-12-15T21:42:17.952Z,87.60
2022-12-15T21:44:45.533Z,87.70
2022-12-15T21:47:52.054Z,87.80
2022-12-15T21:50:22.392Z,87.80
2022-12-15T21:52:49.492Z,87.90
2022-12-15T21:55:19.414Z,87.90
2022-12-15T21:57:46.492Z,88.00
2022-12-15T22:00:17.653Z,88.00
2022-12-15T22:02:45.456Z,88.10
2022-12-15T22:05:44.615Z,88.10
2022-12-15T22:08:19.348Z,88.20
2022-12-15T22:10:47.043Z,88.30
2022-12-15T22:13:19.987Z,88.30
2022-12-15T22:16:12.904Z,88.30
2022-12-15T22:19:07.467Z,88.40
2022-12-15T22:21:35.726Z,88.40
2022-12-15T22:24:15.512Z,88.40
2022-12-15T22:26:47.728Z,88.50
2022-12-15T22:29:41.834Z,88.50
2022-12-15T22:32:21.406Z,88.60
2022-12-15T22:34:55.162Z,88.70
2022-12-15T22:37:31.324Z,88.70
2022-12-15T22:40:10.576Z,88.70
2022-12-15T22:43:16.816Z,88.80
2022-12-15T22:45:51.990Z,88.80
2022-12-15T22:52:56.507Z,88.90
2022-12-15T22:56:19.956Z,88.90
2022-12-15T22:58:46.925Z,88.90
2022-12-15T23:01:13.983Z,88.90
2022-12-15T23:03:40.924Z,88.90
2022-12-15T23:06:08.025Z,89.00
2022-12-15T23:08:35.193Z,89.00
2022-12-15T23:11:21.712Z,89.10
2022-12-15T23:13:48.898Z,89.10
2022-12-15T23:16:21.822Z,89.20
2022-12-15T23:18:53.414Z,89.20
2022-12-15T23:21:22.508Z,89.20
2022-12-15T23:23:49.482Z,89.30
2022-12-15T23:26:18.471Z,89.40
2022-12-15T23:28:45.451Z,89.40
2022-12-15T23:31:12.906Z,89.40
2022-12-15T23:33:41.343Z,89.40
2022-12-15T23:36:08.946Z,89.50
2022-12-15T23:38:36.166Z,89.50
2022-12-15T23:41:03.057Z,89.50
2022-12-15T23:43:32.150Z,89.50
2022-12-15T23:46:02.056Z,89.50
2022-12-15T23:48:30.833Z,89.60
2022-12-15T23:51:06.195Z,89.60
2022-12-15T23:53:33.956Z,89.60
2022-12-15T23:56:22.888Z,89.60
2022-12-15T23:58:55.319Z,89.70
